Matutina, Brazil
Current Conditions -  °F | °C
As of 8:00 AM on Friday 31 Oct 2014 (Local Time) from SBAX Reporting Station
Scattered Clouds Scattered Clouds  
Wind Chill: 68°   Ceiling: Unl
Heat Index: 68°   Visibility: 6mi
Dew Point: 57°   Wind: 2mph
Humidity: 68%   Direction: 100°E
Pressure: 30.09"   Gusts: NA
Location:  19.22°S, 45.97°W
Report Text: SBAX 311000Z 10002KT 9999 SCT040 20/14 Q1019
Loading
Personal Weather Stations






























Interactive Weather Map
Tropical Storm Tracking
New forecast layout! Learn more

10-Day Weather Forecast

Advertisements
Track Severe Weather on mobile